sensor_id;sensor_type;location;lat;lon;timestamp;temperature;humidity
6379;DHT22;3222;48.858;10.128;2023-02-24T00:01:10;8.50;99.90
6379;DHT22;3222;48.858;10.128;2023-02-24T00:03:37;8.50;99.90
6379;DHT22;3222;48.858;10.128;2023-02-24T00:06:04;8.60;99.90
6379;DHT22;3222;48.858;10.128;2023-02-24T00:08:40;8.50;99.90
6379;DHT22;3222;48.858;10.128;2023-02-24T00:11:13;8.50;99.90
6379;DHT22;3222;48.858;10.128;2023-02-24T00:13:40;8.50;99.90
6379;DHT22;3222;48.858;10.128;2023-02-24T00:16:11;8.50;99.90
6379;DHT22;3222;48.858;10.128;2023-02-24T00:18:37;8.50;99.90
6379;DHT22;3222;48.858;10.128;2023-02-24T00:21:08;8.50;99.90
6379;DHT22;3222;48.858;10.128;2023-02-24T00:23:36;8.50;99.90
6379;DHT22;3222;48.858;10.128;2023-02-24T00:26:03;8.50;99.90
6379;DHT22;3222;48.858;10.128;2023-02-24T00:28:32;8.50;99.90
6379;DHT22;3222;48.858;10.128;2023-02-24T00:31:02;8.50;99.90
6379;DHT22;3222;48.858;10.128;2023-02-24T00:33:28;8.40;99.90
6379;DHT22;3222;48.858;10.128;2023-02-24T00:36:03;8.40;99.90
6379;DHT22;3222;48.858;10.128;2023-02-24T00:38:29;8.40;99.90
6379;DHT22;3222;48.858;10.128;2023-02-24T00:41:06;8.40;99.90
6379;DHT22;3222;48.858;10.128;2023-02-24T00:43:32;8.40;99.90
6379;DHT22;3222;48.858;10.128;2023-02-24T00:46:02;8.40;99.90
6379;DHT22;3222;48.858;10.128;2023-02-24T00:48:38;8.40;99.90
6379;DHT22;3222;48.858;10.128;2023-02-24T00:51:11;8.40;99.90
6379;DHT22;3222;48.858;10.128;2023-02-24T00:53:38;8.40;99.90
6379;DHT22;3222;48.858;10.128;2023-02-24T00:56:09;8.40;99.90
6379;DHT22;3222;48.858;10.128;2023-02-24T00:58:41;8.40;99.90
6379;DHT22;3222;48.858;10.128;2023-02-24T01:01:15;8.40;99.90
6379;DHT22;3222;48.858;10.128;2023-02-24T01:03:42;8.40;99.90
6379;DHT22;3222;48.858;10.128;2023-02-24T01:06:10;8.40;99.90
6379;DHT22;3222;48.858;10.128;2023-02-24T01:08:39;8.40;99.90
6379;DHT22;3222;48.858;10.128;2023-02-24T01:11:13;8.30;99.90
6379;DHT22;3222;48.858;10.128;2023-02-24T01:13:57;8.40;99.90
6379;DHT22;3222;48.858;10.128;2023-02-24T01:16:23;8.40;99.90
6379;DHT22;3222;48.858;10.128;2023-02-24T01:18:51;8.40;99.90
6379;DHT22;3222;48.858;10.128;2023-02-24T01:21:18;8.40;99.90
6379;DHT22;3222;48.858;10.128;2023-02-24T01:23:49;8.40;99.90
6379;DHT22;3222;48.858;10.128;2023-02-24T01:26:16;8.40;99.90
6379;DHT22;3222;48.858;10.128;2023-02-24T01:28:43;8.40;99.90
6379;DHT22;3222;48.858;10.128;2023-02-24T01:31:11;8.40;99.90
6379;DHT22;3222;48.858;10.128;2023-02-24T01:33:37;8.40;99.90
6379;DHT22;3222;48.858;10.128;2023-02-24T01:36:18;8.50;99.90
6379;DHT22;3222;48.858;10.128;2023-02-24T01:38:44;8.50;99.90
6379;DHT22;3222;48.858;10.128;2023-02-24T01:41:12;8.50;99.90
6379;DHT22;3222;48.858;10.128;2023-02-24T01:44:06;8.50;99.90
6379;DHT22;3222;48.858;10.128;2023-02-24T01:46:35;8.50;99.90
6379;DHT22;3222;48.858;10.128;2023-02-24T01:51:53;8.50;99.90
6379;DHT22;3222;48.858;10.128;2023-02-24T01:54:25;8.50;99.90
6379;DHT22;3222;48.858;10.128;2023-02-24T01:56:53;8.50;99.90
6379;DHT22;3222;48.858;10.128;2023-02-24T01:59:23;8.40;99.90
6379;DHT22;3222;48.858;10.128;2023-02-24T02:01:52;8.50;99.90
6379;DHT22;3222;48.858;10.128;2023-02-24T02:04:30;8.50;99.90
6379;DHT22;3222;48.858;10.128;2023-02-24T02:06:58;8.40;99.90
6379;DHT22;3222;48.858;10.128;2023-02-24T02:09:30;8.40;99.90
6379;DHT22;3222;48.858;10.128;2023-02-24T02:11:56;8.40;99.90
6379;DHT22;3222;48.858;10.128;2023-02-24T02:14:23;8.40;99.90
6379;DHT22;3222;48.858;10.128;2023-02-24T02:35:23;8.40;99.90
6379;DHT22;3222;48.858;10.128;2023-02-24T02:40:49;8.40;99.90
6379;DHT22;3222;48.858;10.128;2023-02-24T02:46:09;8.40;99.90
6379;DHT22;3222;48.858;10.128;2023-02-24T02:48:53;8.40;99.90
6379;DHT22;3222;48.858;10.128;2023-02-24T02:51:25;8.40;99.90
6379;DHT22;3222;48.858;10.128;2023-02-24T02:54:05;8.40;99.90
6379;DHT22;3222;48.858;10.128;2023-02-24T02:56:39;8.40;99.90
6379;DHT22;3222;48.858;10.128;2023-02-24T02:59:07;8.40;99.90
6379;DHT22;3222;48.858;10.128;2023-02-24T03:01:39;8.40;99.90
6379;DHT22;3222;48.858;10.128;2023-02-24T03:04:08;8.40;99.90
6379;DHT22;3222;48.858;10.128;2023-02-24T03:06:49;8.40;99.90
6379;DHT22;3222;48.858;10.128;2023-02-24T03:09:24;8.40;99.90
6379;DHT22;3222;48.858;10.128;2023-02-24T03:11:57;8.40;99.90
6379;DHT22;3222;48.858;10.128;2023-02-24T03:14:28;8.40;99.90
6379;DHT22;3222;48.858;10.128;2023-02-24T03:16:58;8.30;99.90
6379;DHT22;3222;48.858;10.128;2023-02-24T03:19:28;8.30;99.90
6379;DHT22;3222;48.858;10.128;2023-02-24T03:22:16;8.30;99.90
6379;DHT22;3222;48.858;10.128;2023-02-24T03:24:44;8.40;99.90
6379;DHT22;3222;48.858;10.128;2023-02-24T03:27:27;8.50;99.90
6379;DHT22;3222;48.858;10.128;2023-02-24T03:30:01;8.50;99.90
6379;DHT22;3222;48.858;10.128;2023-02-24T03:35:21;8.50;99.90
6379;DHT22;3222;48.858;10.128;2023-02-24T03:37:48;8.40;99.90
6379;DHT22;3222;48.858;10.128;2023-02-24T03:40:16;8.50;99.90
6379;DHT22;3222;48.858;10.128;2023-02-24T03:42:49;8.50;99.90
6379;DHT22;3222;48.858;10.128;2023-02-24T03:45:17;8.60;99.90
6379;DHT22;3222;48.858;10.128;2023-02-24T03:47:44;8.50;99.90
6379;DHT22;3222;48.858;10.128;2023-02-24T03:50:16;8.50;99.90
6379;DHT22;3222;48.858;10.128;2023-02-24T03:52:58;8.50;99.90
6379;DHT22;3222;48.858;10.128;2023-02-24T04:03:48;8.30;99.90
6379;DHT22;3222;48.858;10.128;2023-02-24T04:12:26;8.30;99.90
6379;DHT22;3222;48.858;10.128;2023-02-24T04:15:02;8.30;99.90
6379;DHT22;3222;48.858;10.128;2023-02-24T04:17:40;8.30;99.90
6379;DHT22;3222;48.858;10.128;2023-02-24T04:20:09;8.30;99.90
6379;DHT22;3222;48.858;10.128;2023-02-24T04:22:47;8.30;99.90
6379;DHT22;3222;48.858;10.128;2023-02-24T04:25:20;8.30;99.90
6379;DHT22;3222;48.858;10.128;2023-02-24T04:27:51;8.30;99.90
6379;DHT22;3222;48.858;10.128;2023-02-24T04:30:18;8.30;99.90
6379;DHT22;3222;48.858;10.128;2023-02-24T04:32:45;8.30;99.90
6379;DHT22;3222;48.858;10.128;2023-02-24T04:35:13;8.30;99.90
6379;DHT22;3222;48.858;10.128;2023-02-24T04:37:44;8.30;99.90
6379;DHT22;3222;48.858;10.128;2023-02-24T04:40:15;8.40;99.90
6379;DHT22;3222;48.858;10.128;2023-02-24T04:42:43;8.40;99.90
6379;DHT22;3222;48.858;10.128;2023-02-24T04:45:19;8.30;99.90
6379;DHT22;3222;48.858;10.128;2023-02-24T04:47:47;8.40;99.90
6379;DHT22;3222;48.858;10.128;2023-02-24T04:50:22;8.30;99.90
6379;DHT22;3222;48.858;10.128;2023-02-24T04:53:00;8.40;99.90
6379;DHT22;3222;48.858;10.128;2023-02-24T04:55:28;8.30;99.90
6379;DHT22;3222;48.858;10.128;2023-02-24T04:57:58;8.40;99.90
6379;DHT22;3222;48.858;10.128;2023-02-24T05:00:24;8.40;99.90
6379;DHT22;3222;48.858;10.128;2023-02-24T05:03:00;8.40;99.90
6379;DHT22;3222;48.858;10.128;2023-02-24T05:05:26;8.40;99.90
6379;DHT22;3222;48.858;10.128;2023-02-24T05:07:57;8.30;99.90
6379;DHT22;3222;48.858;10.128;2023-02-24T05:10:38;8.30;99.90
6379;DHT22;3222;48.858;10.128;2023-02-24T05:13:05;8.20;99.90
6379;DHT22;3222;48.858;10.128;2023-02-24T05:15:32;8.30;99.90
6379;DHT22;3222;48.858;10.128;2023-02-24T05:17:59;8.30;99.90
6379;DHT22;3222;48.858;10.128;2023-02-24T05:20:28;8.30;99.90
6379;DHT22;3222;48.858;10.128;2023-02-24T05:23:13;8.20;99.90
6379;DHT22;3222;48.858;10.128;2023-02-24T05:25:38;8.20;99.90
6379;DHT22;3222;48.858;10.128;2023-02-24T05:28:08;8.20;99.90
6379;DHT22;3222;48.858;10.128;2023-02-24T05:30:33;8.10;99.90
6379;DHT22;3222;48.858;10.128;2023-02-24T05:33:00;8.10;99.90
6379;DHT22;3222;48.858;10.128;2023-02-24T05:35:26;8.10;99.90
6379;DHT22;3222;48.858;10.128;2023-02-24T05:37:51;8.10;99.90
6379;DHT22;3222;48.858;10.128;2023-02-24T05:40:18;8.10;99.90
6379;DHT22;3222;48.858;10.128;2023-02-24T05:42:48;8.10;99.90
6379;DHT22;3222;48.858;10.128;2023-02-24T05:45:14;8.10;99.90
6379;DHT22;3222;48.858;10.128;2023-02-24T05:47:40;8.10;99.90
6379;DHT22;3222;48.858;10.128;2023-02-24T05:50:11;8.10;99.90
6379;DHT22;3222;48.858;10.128;2023-02-24T05:52:37;8.10;99.90
6379;DHT22;3222;48.858;10.128;2023-02-24T05:55:04;8.10;99.90
6379;DHT22;3222;48.858;10.128;2023-02-24T05:57:31;8.10;99.90
6379;DHT22;3222;48.858;10.128;2023-02-24T06:00:00;8.10;99.90
6379;DHT22;3222;48.858;10.128;2023-02-24T06:02:38;8.10;99.90
6379;DHT22;3222;48.858;10.128;2023-02-24T06:05:04;8.10;99.90
6379;DHT22;3222;48.858;10.128;2023-02-24T06:07:33;8.10;99.90
6379;DHT22;3222;48.858;10.128;2023-02-24T06:10:00;8.10;99.90
6379;DHT22;3222;48.858;10.128;2023-02-24T06:12:31;8.10;99.90
6379;DHT22;3222;48.858;10.128;2023-02-24T06:15:04;8.00;99.90
6379;DHT22;3222;48.858;10.128;2023-02-24T06:17:31;8.10;99.90
6379;DHT22;3222;48.858;10.128;2023-02-24T06:19:57;8.10;99.90
6379;DHT22;3222;48.858;10.128;2023-02-24T06:22:24;8.10;99.90
6379;DHT22;3222;48.858;10.128;2023-02-24T06:24:52;8.10;99.90
6379;DHT22;3222;48.858;10.128;2023-02-24T06:27:19;8.00;99.90
6379;DHT22;3222;48.858;10.128;2023-02-24T06:29:48;8.00;99.90
6379;DHT22;3222;48.858;10.128;2023-02-24T06:32:21;8.10;99.90
6379;DHT22;3222;48.858;10.128;2023-02-24T06:34:48;8.10;99.90
6379;DHT22;3222;48.858;10.128;2023-02-24T06:37:15;8.00;99.90
6379;DHT22;3222;48.858;10.128;2023-02-24T06:39:41;8.10;99.90
6379;DHT22;3222;48.858;10.128;2023-02-24T06:42:08;8.00;99.90
6379;DHT22;3222;48.858;10.128;2023-02-24T06:44:37;8.10;99.90
6379;DHT22;3222;48.858;10.128;2023-02-24T06:47:03;8.00;99.90
6379;DHT22;3222;48.858;10.128;2023-02-24T06:49:28;8.00;99.90
6379;DHT22;3222;48.858;10.128;2023-02-24T06:51:55;8.10;99.90
6379;DHT22;3222;48.858;10.128;2023-02-24T06:54:22;8.00;99.90
6379;DHT22;3222;48.858;10.128;2023-02-24T06:56:50;8.10;99.90
6379;DHT22;3222;48.858;10.128;2023-02-24T06:59:16;8.10;99.90
6379;DHT22;3222;48.858;10.128;2023-02-24T07:01:56;8.10;99.90
6379;DHT22;3222;48.858;10.128;2023-02-24T07:04:22;8.10;99.90
6379;DHT22;3222;48.858;10.128;2023-02-24T07:06:59;8.10;99.90
6379;DHT22;3222;48.858;10.128;2023-02-24T07:09:27;8.10;99.90
6379;DHT22;3222;48.858;10.128;2023-02-24T07:11:54;8.10;99.90
6379;DHT22;3222;48.858;10.128;2023-02-24T07:14:26;8.10;99.90
6379;DHT22;3222;48.858;10.128;2023-02-24T07:16:52;8.10;99.90
6379;DHT22;3222;48.858;10.128;2023-02-24T07:19:25;8.10;99.90
6379;DHT22;3222;48.858;10.128;2023-02-24T07:21:55;8.10;99.90
6379;DHT22;3222;48.858;10.128;2023-02-24T07:24:25;8.10;99.90
6379;DHT22;3222;48.858;10.128;2023-02-24T07:26:59;8.10;99.90
6379;DHT22;3222;48.858;10.128;2023-02-24T07:29:27;8.10;99.90
6379;DHT22;3222;48.858;10.128;2023-02-24T07:31:54;8.10;99.90
6379;DHT22;3222;48.858;10.128;2023-02-24T07:34:24;8.10;99.90
6379;DHT22;3222;48.858;10.128;2023-02-24T07:36:51;8.10;99.90
6379;DHT22;3222;48.858;10.128;2023-02-24T07:39:17;8.10;99.90
6379;DHT22;3222;48.858;10.128;2023-02-24T07:41:44;8.10;99.90
6379;DHT22;3222;48.858;10.128;2023-02-24T07:44:11;8.00;99.90
6379;DHT22;3222;48.858;10.128;2023-02-24T07:46:38;8.20;99.90
6379;DHT22;3222;48.858;10.128;2023-02-24T07:49:05;8.30;99.90
6379;DHT22;3222;48.858;10.128;2023-02-24T07:51:34;8.20;99.90
6379;DHT22;3222;48.858;10.128;2023-02-24T07:54:00;8.20;99.90
6379;DHT22;3222;48.858;10.128;2023-02-24T07:56:28;8.10;99.90
6379;DHT22;3222;48.858;10.128;2023-02-24T07:59:03;8.10;99.90
6379;DHT22;3222;48.858;10.128;2023-02-24T08:01:36;8.10;99.90
6379;DHT22;3222;48.858;10.128;2023-02-24T08:04:07;8.10;99.90
6379;DHT22;3222;48.858;10.128;2023-02-24T08:06:35;8.10;99.90
6379;DHT22;3222;48.858;10.128;2023-02-24T08:09:06;8.20;99.90
6379;DHT22;3222;48.858;10.128;2023-02-24T08:11:53;8.20;99.90
6379;DHT22;3222;48.858;10.128;2023-02-24T08:14:24;8.20;99.90
6379;DHT22;3222;48.858;10.128;2023-02-24T08:16:53;8.30;99.90
6379;DHT22;3222;48.858;10.128;2023-02-24T08:19:25;8.30;99.90
6379;DHT22;3222;48.858;10.128;2023-02-24T08:21:54;8.20;99.90
6379;DHT22;3222;48.858;10.128;2023-02-24T08:24:24;8.20;99.90
6379;DHT22;3222;48.858;10.128;2023-02-24T08:26:55;8.30;99.90
6379;DHT22;3222;48.858;10.128;2023-02-24T08:29:31;8.20;99.90
6379;DHT22;3222;48.858;10.128;2023-02-24T08:32:06;8.20;99.90
6379;DHT22;3222;48.858;10.128;2023-02-24T08:34:37;8.30;99.90
6379;DHT22;3222;48.858;10.128;2023-02-24T08:37:03;8.40;99.90
6379;DHT22;3222;48.858;10.128;2023-02-24T08:39:29;8.40;99.90
6379;DHT22;3222;48.858;10.128;2023-02-24T08:41:58;8.40;99.90
6379;DHT22;3222;48.858;10.128;2023-02-24T08:44:24;8.50;99.90
6379;DHT22;3222;48.858;10.128;2023-02-24T08:46:53;8.40;99.90
6379;DHT22;3222;48.858;10.128;2023-02-24T08:49:20;8.40;99.90
6379;DHT22;3222;48.858;10.128;2023-02-24T08:51:50;8.30;99.90
6379;DHT22;3222;48.858;10.128;2023-02-24T08:54:23;8.40;99.90
6379;DHT22;3222;48.858;10.128;2023-02-24T08:56:53;8.40;99.90
6379;DHT22;3222;48.858;10.128;2023-02-24T08:59:25;8.40;99.90
6379;DHT22;3222;48.858;10.128;2023-02-24T09:02:09;8.40;99.90
6379;DHT22;3222;48.858;10.128;2023-02-24T09:04:53;8.40;99.90
6379;DHT22;3222;48.858;10.128;2023-02-24T09:07:25;8.40;99.90
6379;DHT22;3222;48.858;10.128;2023-02-24T09:09:52;8.50;99.90
6379;DHT22;3222;48.858;10.128;2023-02-24T09:12:23;8.60;99.90
6379;DHT22;3222;48.858;10.128;2023-02-24T09:14:58;8.50;99.90
6379;DHT22;3222;48.858;10.128;2023-02-24T09:17:28;8.50;99.90
6379;DHT22;3222;48.858;10.128;2023-02-24T09:20:22;8.40;99.90
6379;DHT22;3222;48.858;10.128;2023-02-24T09:23:06;8.50;99.90
6379;DHT22;3222;48.858;10.128;2023-02-24T09:25:37;8.40;99.90
6379;DHT22;3222;48.858;10.128;2023-02-24T09:28:23;8.50;99.90
6379;DHT22;3222;48.858;10.128;2023-02-24T09:30:53;8.60;99.90
6379;DHT22;3222;48.858;10.128;2023-02-24T09:33:27;8.70;99.90
6379;DHT22;3222;48.858;10.128;2023-02-24T09:35:56;8.50;99.90
6379;DHT22;3222;48.858;10.128;2023-02-24T09:38:49;8.50;99.90
6379;DHT22;3222;48.858;10.128;2023-02-24T09:41:46;8.50;99.90
6379;DHT22;3222;48.858;10.128;2023-02-24T09:45:03;8.60;99.90
6379;DHT22;3222;48.858;10.128;2023-02-24T09:47:41;8.60;99.90
6379;DHT22;3222;48.858;10.128;2023-02-24T09:52:47;8.60;99.90
6379;DHT22;3222;48.858;10.128;2023-02-24T09:58:01;8.60;99.90
6379;DHT22;3222;48.858;10.128;2023-02-24T10:04:01;8.60;99.90
6379;DHT22;3222;48.858;10.128;2023-02-24T10:06:43;8.50;99.90
6379;DHT22;3222;48.858;10.128;2023-02-24T10:11:47;8.50;99.90
6379;DHT22;3222;48.858;10.128;2023-02-24T10:14:45;8.50;99.90
6379;DHT22;3222;48.858;10.128;2023-02-24T10:17:18;8.60;99.90
6379;DHT22;3222;48.858;10.128;2023-02-24T10:19:59;8.70;99.90
6379;DHT22;3222;48.858;10.128;2023-02-24T10:22:49;8.60;99.90
6379;DHT22;3222;48.858;10.128;2023-02-24T10:28:17;8.50;99.90
6379;DHT22;3222;48.858;10.128;2023-02-24T10:33:26;8.50;99.90
6379;DHT22;3222;48.858;10.128;2023-02-24T10:36:10;8.50;99.90
6379;DHT22;3222;48.858;10.128;2023-02-24T10:38:39;8.60;99.90
6379;DHT22;3222;48.858;10.128;2023-02-24T10:41:08;8.50;99.90
6379;DHT22;3222;48.858;10.128;2023-02-24T10:43:34;8.50;99.90
6379;DHT22;3222;48.858;10.128;2023-02-24T10:46:22;8.50;99.90
6379;DHT22;3222;48.858;10.128;2023-02-24T10:48:55;8.50;99.90
6379;DHT22;3222;48.858;10.128;2023-02-24T10:51:29;8.60;99.90
6379;DHT22;3222;48.858;10.128;2023-02-24T10:54:23;8.50;99.90
6379;DHT22;3222;48.858;10.128;2023-02-24T10:57:07;8.50;99.90
6379;DHT22;3222;48.858;10.128;2023-02-24T10:59:55;8.60;99.90
6379;DHT22;3222;48.858;10.128;2023-02-24T11:02:36;8.60;99.90
6379;DHT22;3222;48.858;10.128;2023-02-24T11:05:25;8.70;99.90
6379;DHT22;3222;48.858;10.128;2023-02-24T11:08:08;8.70;99.90
6379;DHT22;3222;48.858;10.128;2023-02-24T11:10:40;8.60;99.90
6379;DHT22;3222;48.858;10.128;2023-02-24T11:13:23;8.70;99.90
6379;DHT22;3222;48.858;10.128;2023-02-24T11:16:10;8.60;99.90
6379;DHT22;3222;48.858;10.128;2023-02-24T11:18:54;8.60;99.90
6379;DHT22;3222;48.858;10.128;2023-02-24T11:21:24;8.70;99.90
6379;DHT22;3222;48.858;10.128;2023-02-24T11:23:53;8.70;99.90
6379;DHT22;3222;48.858;10.128;2023-02-24T11:26:24;8.70;99.90
6379;DHT22;3222;48.858;10.128;2023-02-24T11:37:05;8.70;99.90
6379;DHT22;3222;48.858;10.128;2023-02-24T11:42:29;8.70;99.90
6379;DHT22;3222;48.858;10.128;2023-02-24T11:47:35;8.70;99.90
6379;DHT22;3222;48.858;10.128;2023-02-24T11:50:25;8.70;99.90
6379;DHT22;3222;48.858;10.128;2023-02-24T11:52:55;8.70;99.90
6379;DHT22;3222;48.858;10.128;2023-02-24T11:55:39;8.70;99.90
6379;DHT22;3222;48.858;10.128;2023-02-24T11:58:16;8.70;99.90
6379;DHT22;3222;48.858;10.128;2023-02-24T12:01:15;8.60;99.90
6379;DHT22;3222;48.858;10.128;2023-02-24T12:09:46;8.60;99.90
6379;DHT22;3222;48.858;10.128;2023-02-24T12:12:27;8.60;99.90
6379;DHT22;3222;48.858;10.128;2023-02-24T12:14:58;8.60;99.90
6379;DHT22;3222;48.858;10.128;2023-02-24T12:17:34;8.60;99.90
6379;DHT22;3222;48.858;10.128;2023-02-24T12:20:20;8.70;99.90
6379;DHT22;3222;48.858;10.128;2023-02-24T12:22:55;8.70;99.90
6379;DHT22;3222;48.858;10.128;2023-02-24T12:25:25;8.60;99.90
6379;DHT22;3222;48.858;10.128;2023-02-24T12:28:16;8.70;99.90
6379;DHT22;3222;48.858;10.128;2023-02-24T12:33:55;8.60;99.90
6379;DHT22;3222;48.858;10.128;2023-02-24T12:47:20;8.60;99.90
6379;DHT22;3222;48.858;10.128;2023-02-24T12:52:42;8.70;99.90
6379;DHT22;3222;48.858;10.128;2023-02-24T12:55:18;8.70;99.90
6379;DHT22;3222;48.858;10.128;2023-02-24T13:00:49;8.60;99.90
6379;DHT22;3222;48.858;10.128;2023-02-24T13:03:27;8.60;99.90
6379;DHT22;3222;48.858;10.128;2023-02-24T13:06:17;8.60;99.90
6379;DHT22;3222;48.858;10.128;2023-02-24T13:11:45;8.50;99.90
6379;DHT22;3222;48.858;10.128;2023-02-24T13:14:19;8.70;99.90
6379;DHT22;3222;48.858;10.128;2023-02-24T13:16:48;8.70;99.90
6379;DHT22;3222;48.858;10.128;2023-02-24T13:19:27;8.70;99.90
6379;DHT22;3222;48.858;10.128;2023-02-24T13:27:22;8.80;99.90
6379;DHT22;3222;48.858;10.128;2023-02-24T13:30:00;8.70;99.90
6379;DHT22;3222;48.858;10.128;2023-02-24T13:35:03;8.70;99.90
6379;DHT22;3222;48.858;10.128;2023-02-24T13:37:38;8.70;99.90
6379;DHT22;3222;48.858;10.128;2023-02-24T13:45:33;8.70;99.90
6379;DHT22;3222;48.858;10.128;2023-02-24T14:01:55;8.70;99.90
6379;DHT22;3222;48.858;10.128;2023-02-24T14:04:24;8.70;99.90
6379;DHT22;3222;48.858;10.128;2023-02-24T14:06:56;8.60;99.90
6379;DHT22;3222;48.858;10.128;2023-02-24T14:09:31;8.70;99.90
6379;DHT22;3222;48.858;10.128;2023-02-24T14:12:05;8.60;99.90
6379;DHT22;3222;48.858;10.128;2023-02-24T14:14:32;8.60;99.90
6379;DHT22;3222;48.858;10.128;2023-02-24T14:16:58;8.60;99.90
6379;DHT22;3222;48.858;10.128;2023-02-24T14:19:24;8.60;99.90
6379;DHT22;3222;48.858;10.128;2023-02-24T14:21:53;8.70;99.90
6379;DHT22;3222;48.858;10.128;2023-02-24T14:24:20;8.50;99.90
6379;DHT22;3222;48.858;10.128;2023-02-24T14:29:21;8.60;99.90
6379;DHT22;3222;48.858;10.128;2023-02-24T14:31:52;8.60;99.90
6379;DHT22;3222;48.858;10.128;2023-02-24T14:34:24;8.70;99.90
6379;DHT22;3222;48.858;10.128;2023-02-24T14:36:53;8.70;99.90
6379;DHT22;3222;48.858;10.128;2023-02-24T14:39:20;8.70;99.90
6379;DHT22;3222;48.858;10.128;2023-02-24T14:41:47;8.70;99.90
6379;DHT22;3222;48.858;10.128;2023-02-24T14:44:25;8.60;99.90
6379;DHT22;3222;48.858;10.128;2023-02-24T14:46:53;8.60;99.90
6379;DHT22;3222;48.858;10.128;2023-02-24T14:49:25;8.60;99.90
6379;DHT22;3222;48.858;10.128;2023-02-24T14:52:14;8.70;99.90
6379;DHT22;3222;48.858;10.128;2023-02-24T14:54:53;8.60;99.90
6379;DHT22;3222;48.858;10.128;2023-02-24T14:57:25;8.60;99.90
6379;DHT22;3222;48.858;10.128;2023-02-24T14:59:57;8.60;99.90
6379;DHT22;3222;48.858;10.128;2023-02-24T15:02:30;8.60;99.90
6379;DHT22;3222;48.858;10.128;2023-02-24T15:04:58;8.60;99.90
6379;DHT22;3222;48.858;10.128;2023-02-24T15:07:27;8.60;99.90
6379;DHT22;3222;48.858;10.128;2023-02-24T15:09:54;8.60;99.90
6379;DHT22;3222;48.858;10.128;2023-02-24T15:12:34;8.60;99.90
6379;DHT22;3222;48.858;10.128;2023-02-24T15:17:29;8.60;99.90
6379;DHT22;3222;48.858;10.128;2023-02-24T15:19:55;8.60;99.90
6379;DHT22;3222;48.858;10.128;2023-02-24T15:22:26;8.60;99.90
6379;DHT22;3222;48.858;10.128;2023-02-24T15:24:55;8.60;99.90
6379;DHT22;3222;48.858;10.128;2023-02-24T15:27:32;8.50;99.90
6379;DHT22;3222;48.858;10.128;2023-02-24T15:30:07;8.60;99.90
6379;DHT22;3222;48.858;10.128;2023-02-24T15:32:36;8.50;99.90
6379;DHT22;3222;48.858;10.128;2023-02-24T15:35:03;8.50;99.90
6379;DHT22;3222;48.858;10.128;2023-02-24T15:37:39;8.50;99.90
6379;DHT22;3222;48.858;10.128;2023-02-24T15:40:21;8.50;99.90
6379;DHT22;3222;48.858;10.128;2023-02-24T15:42:55;8.50;99.90
6379;DHT22;3222;48.858;10.128;2023-02-24T15:45:25;8.60;99.90
6379;DHT22;3222;48.858;10.128;2023-02-24T15:47:54;8.60;99.90
6379;DHT22;3222;48.858;10.128;2023-02-24T15:50:21;8.60;99.90
6379;DHT22;3222;48.858;10.128;2023-02-24T15:52:47;8.60;99.90
6379;DHT22;3222;48.858;10.128;2023-02-24T15:55:15;8.50;99.90
6379;DHT22;3222;48.858;10.128;2023-02-24T15:57:42;8.50;99.90
6379;DHT22;3222;48.858;10.128;2023-02-24T16:00:10;8.50;99.90
6379;DHT22;3222;48.858;10.128;2023-02-24T16:02:38;8.40;99.90
6379;DHT22;3222;48.858;10.128;2023-02-24T16:05:04;8.50;99.90
6379;DHT22;3222;48.858;10.128;2023-02-24T16:07:32;8.40;99.90
6379;DHT22;3222;48.858;10.128;2023-02-24T16:10:00;8.40;99.90
6379;DHT22;3222;48.858;10.128;2023-02-24T16:12:33;8.30;99.90
6379;DHT22;3222;48.858;10.128;2023-02-24T16:15:01;8.40;99.90
6379;DHT22;3222;48.858;10.128;2023-02-24T16:17:40;8.40;99.90
6379;DHT22;3222;48.858;10.128;2023-02-24T16:20:19;8.40;99.90
6379;DHT22;3222;48.858;10.128;2023-02-24T16:22:53;8.40;99.90
6379;DHT22;3222;48.858;10.128;2023-02-24T16:25:19;8.30;99.90
6379;DHT22;3222;48.858;10.128;2023-02-24T16:27:45;8.30;99.90
6379;DHT22;3222;48.858;10.128;2023-02-24T16:30:16;8.30;99.90
6379;DHT22;3222;48.858;10.128;2023-02-24T16:32:43;8.30;99.90
6379;DHT22;3222;48.858;10.128;2023-02-24T16:35:09;8.30;99.90
6379;DHT22;3222;48.858;10.128;2023-02-24T16:37:35;8.30;99.90
6379;DHT22;3222;48.858;10.128;2023-02-24T16:40:01;8.40;99.90
6379;DHT22;3222;48.858;10.128;2023-02-24T16:42:35;8.30;99.90
6379;DHT22;3222;48.858;10.128;2023-02-24T16:45:01;8.40;99.90
6379;DHT22;3222;48.858;10.128;2023-02-24T16:47:27;8.40;99.90
6379;DHT22;3222;48.858;10.128;2023-02-24T16:49:53;8.40;99.90
6379;DHT22;3222;48.858;10.128;2023-02-24T16:52:22;8.40;99.90
6379;DHT22;3222;48.858;10.128;2023-02-24T16:54:49;8.40;99.90
6379;DHT22;3222;48.858;10.128;2023-02-24T16:57:15;8.40;99.90
6379;DHT22;3222;48.858;10.128;2023-02-24T16:59:41;8.40;99.90
6379;DHT22;3222;48.858;10.128;2023-02-24T17:02:12;8.30;99.90
6379;DHT22;3222;48.858;10.128;2023-02-24T17:04:41;8.50;99.90
6379;DHT22;3222;48.858;10.128;2023-02-24T17:07:09;8.40;99.90
6379;DHT22;3222;48.858;10.128;2023-02-24T17:09:35;8.50;99.90
6379;DHT22;3222;48.858;10.128;2023-02-24T17:12:01;8.30;99.90
6379;DHT22;3222;48.858;10.128;2023-02-24T17:14:26;8.30;99.90
6379;DHT22;3222;48.858;10.128;2023-02-24T17:16:52;8.20;99.90
6379;DHT22;3222;48.858;10.128;2023-02-24T17:19:17;8.30;99.90
6379;DHT22;3222;48.858;10.128;2023-02-24T17:21:44;8.20;99.90
6379;DHT22;3222;48.858;10.128;2023-02-24T17:24:19;8.30;99.90
6379;DHT22;3222;48.858;10.128;2023-02-24T17:26:45;8.30;99.90
6379;DHT22;3222;48.858;10.128;2023-02-24T17:29:11;8.30;99.90
6379;DHT22;3222;48.858;10.128;2023-02-24T17:31:38;8.30;99.90
6379;DHT22;3222;48.858;10.128;2023-02-24T17:34:04;8.20;99.90
6379;DHT22;3222;48.858;10.128;2023-02-24T17:36:30;8.30;99.90
6379;DHT22;3222;48.858;10.128;2023-02-24T17:38:56;8.20;99.90
6379;DHT22;3222;48.858;10.128;2023-02-24T17:41:23;8.30;99.90
6379;DHT22;3222;48.858;10.128;2023-02-24T17:43:50;8.30;99.90
6379;DHT22;3222;48.858;10.128;2023-02-24T17:46:16;8.30;99.90
6379;DHT22;3222;48.858;10.128;2023-02-24T17:48:41;8.30;99.90
6379;DHT22;3222;48.858;10.128;2023-02-24T17:51:12;8.30;99.90
6379;DHT22;3222;48.858;10.128;2023-02-24T17:53:38;8.20;99.90
6379;DHT22;3222;48.858;10.128;2023-02-24T17:56:05;8.20;99.90
6379;DHT22;3222;48.858;10.128;2023-02-24T17:58:31;8.30;99.90
6379;DHT22;3222;48.858;10.128;2023-02-24T18:00:57;8.30;99.90
6379;DHT22;3222;48.858;10.128;2023-02-24T18:03:23;8.30;99.90
6379;DHT22;3222;48.858;10.128;2023-02-24T18:05:57;8.30;99.90
6379;DHT22;3222;48.858;10.128;2023-02-24T18:08:23;8.30;99.90
6379;DHT22;3222;48.858;10.128;2023-02-24T18:10:49;8.20;99.90
6379;DHT22;3222;48.858;10.128;2023-02-24T18:13:15;8.10;99.90
6379;DHT22;3222;48.858;10.128;2023-02-24T18:15:40;8.10;99.90
6379;DHT22;3222;48.858;10.128;2023-02-24T18:18:06;8.20;99.90
6379;DHT22;3222;48.858;10.128;2023-02-24T18:20:34;8.30;99.90
6379;DHT22;3222;48.858;10.128;2023-02-24T18:23:00;8.30;99.90
6379;DHT22;3222;48.858;10.128;2023-02-24T18:25:26;8.30;99.90
6379;DHT22;3222;48.858;10.128;2023-02-24T18:27:52;8.20;99.90
6379;DHT22;3222;48.858;10.128;2023-02-24T18:30:17;8.10;99.90
6379;DHT22;3222;48.858;10.128;2023-02-24T18:32:43;8.20;99.90
6379;DHT22;3222;48.858;10.128;2023-02-24T18:35:11;8.20;99.90
6379;DHT22;3222;48.858;10.128;2023-02-24T18:37:36;8.20;99.90
6379;DHT22;3222;48.858;10.128;2023-02-24T18:40:02;8.10;99.90
6379;DHT22;3222;48.858;10.128;2023-02-24T18:42:28;8.10;99.90
6379;DHT22;3222;48.858;10.128;2023-02-24T18:44:54;8.10;99.90